Time;durP1;ratioP1;P1;durP2;ratioP2;P2;SDS_P1;SDS_P2;PMS_P1;PMS_P2;Temp;Humidity;BMP_temperature;BMP_pressure;BME280_temperature;BME280_humidity;BME280_pressure;Samples;Min_cycle;Max_cycle;Signal;HPM_P1;HPM_P2
2024/01/08 00:01:50;;;;;;;6.50;3.90;;;-3.90;99.90;;;;;;5089077;28;20206;-75
2024/01/08 00:04:18;;;;;;;3.83;3.53;;;-3.90;99.90;;;;;;5088499;28;20191;-75
2024/01/08 00:06:44;;;;;;;4.00;3.60;;;-4.00;99.90;;;;;;5088943;28;20201;-75
2024/01/08 00:09:11;;;;;;;4.10;3.70;;;-4.00;99.90;;;;;;5088384;28;20248;-76
2024/01/08 00:11:38;;;;;;;4.43;3.40;;;-4.00;99.90;;;;;;5088117;28;20231;-75
2024/01/08 00:14:06;;;;;;;4.47;3.33;;;-4.00;99.90;;;;;;5088904;28;20285;-75
2024/01/08 00:16:33;;;;;;;4.60;4.03;;;-4.10;99.90;;;;;;5088186;28;20691;-74
2024/01/08 00:19:01;;;;;;;4.80;3.93;;;-4.00;99.90;;;;;;5088402;28;21109;-75
2024/01/08 00:21:29;;;;;;;4.40;3.40;;;-4.00;99.90;;;;;;5088461;28;20615;-75
2024/01/08 00:23:56;;;;;;;3.70;3.27;;;-4.00;99.90;;;;;;5088436;28;20297;-74
2024/01/08 00:26:24;;;;;;;4.50;3.80;;;-4.00;99.90;;;;;;5088361;28;20210;-74
2024/01/08 00:28:51;;;;;;;4.83;3.63;;;-4.00;99.90;;;;;;5088686;28;20211;-75
2024/01/08 00:31:18;;;;;;;5.37;4.00;;;-4.10;99.90;;;;;;5087531;28;20634;-75
2024/01/08 00:33:45;;;;;;;4.17;3.73;;;-4.20;99.90;;;;;;5088326;28;20686;-74
2024/01/08 00:36:12;;;;;;;4.57;3.90;;;-4.10;99.90;;;;;;5087341;28;20302;-75
2024/01/08 00:38:40;;;;;;;5.30;3.87;;;-4.00;99.90;;;;;;5087710;28;20749;-75
2024/01/08 00:41:07;;;;;;;4.67;3.80;;;-4.10;99.90;;;;;;5088019;28;20244;-75
2024/01/08 00:43:34;;;;;;;6.63;4.10;;;-4.00;99.90;;;;;;5088128;28;20237;-75
2024/01/08 00:46:00;;;;;;;3.73;3.23;;;-4.10;99.90;;;;;;5087991;28;20242;-78
2024/01/08 00:48:27;;;;;;;7.60;3.97;;;-4.10;99.90;;;;;;5087754;28;20252;-78
2024/01/08 00:50:54;;;;;;;4.50;3.47;;;-4.10;99.90;;;;;;5087897;28;20228;-78
2024/01/08 00:53:21;;;;;;;4.17;3.70;;;-4.10;99.90;;;;;;5087641;28;20681;-80
2024/01/08 00:55:49;;;;;;;3.60;3.30;;;-4.10;99.90;;;;;;5088094;28;20315;-77
2024/01/08 00:58:16;;;;;;;4.63;3.53;;;-4.10;99.90;;;;;;5087863;28;20208;-77
2024/01/08 01:00:43;;;;;;;4.97;4.03;;;-4.10;99.90;;;;;;5088045;28;20210;-78
2024/01/08 01:03:11;;;;;;;3.90;3.50;;;-4.10;99.90;;;;;;5088045;28;20213;-77
2024/01/08 01:05:38;;;;;;;5.90;3.97;;;-4.10;99.90;;;;;;5088011;28;20245;-78
2024/01/08 01:08:05;;;;;;;5.97;3.70;;;-4.30;99.90;;;;;;5087548;28;20216;-79
2024/01/08 01:10:32;;;;;;;4.83;3.57;;;-4.30;99.90;;;;;;5087412;28;20219;-79
2024/01/08 01:13:00;;;;;;;3.87;3.47;;;-4.30;99.90;;;;;;5088238;28;20298;-79
2024/01/08 01:15:27;;;;;;;4.73;3.50;;;-4.40;99.90;;;;;;5087118;28;20257;-79
2024/01/08 01:17:54;;;;;;;4.20;3.33;;;-4.40;99.90;;;;;;5087488;28;20197;-79
2024/01/08 01:20:21;;;;;;;4.17;3.77;;;-4.30;99.90;;;;;;5087819;28;20322;-79
2024/01/08 01:22:48;;;;;;;4.67;3.83;;;-4.30;99.90;;;;;;5087135;28;20307;-79
2024/01/08 01:25:15;;;;;;;3.37;3.07;;;-4.30;99.90;;;;;;5087705;28;20286;-80
2024/01/08 01:27:42;;;;;;;4.50;3.70;;;-4.40;99.90;;;;;;5087512;28;20295;-80
2024/01/08 01:30:10;;;;;;;5.20;3.80;;;-4.30;99.90;;;;;;5087380;28;20661;-80
2024/01/08 01:32:37;;;;;;;3.93;3.60;;;-4.30;99.90;;;;;;5087284;28;20728;-81
2024/01/08 01:35:06;;;;;;;4.30;3.87;;;-4.40;99.90;;;;;;5087118;28;20639;-79
2024/01/08 01:37:33;;;;;;;4.37;3.43;;;-4.40;99.90;;;;;;5087428;28;20247;-80
2024/01/08 01:39:59;;;;;;;3.87;3.43;;;-4.30;99.90;;;;;;5087433;28;20308;-80
2024/01/08 01:42:26;;;;;;;4.13;3.60;;;-4.30;99.90;;;;;;5087043;28;20655;-80
2024/01/08 01:44:53;;;;;;;4.23;3.60;;;-4.30;99.90;;;;;;5087334;28;20203;-80
2024/01/08 01:47:23;;;;;;;3.60;3.30;;;-4.40;99.90;;;;;;5087080;28;20291;-78
2024/01/08 01:49:50;;;;;;;4.90;3.50;;;-4.40;99.90;;;;;;5087312;28;20550;-77
2024/01/08 01:52:17;;;;;;;3.50;3.20;;;-4.60;99.90;;;;;;5086559;28;20230;-77
2024/01/08 01:54:45;;;;;;;3.93;3.47;;;-4.60;99.90;;;;;;5087216;28;20238;-77
2024/01/08 01:57:11;;;;;;;4.20;3.77;;;-4.60;99.90;;;;;;5087054;28;20674;-78
2024/01/08 01:59:39;;;;;;;5.70;3.90;;;-4.50;99.90;;;;;;5087021;28;20301;-78
2024/01/08 02:02:07;;;;;;;3.93;3.40;;;-4.60;99.90;;;;;;5086875;28;20293;-77
2024/01/08 02:04:36;;;;;;;3.67;3.30;;;-4.60;99.90;;;;;;5087120;28;20208;-78
2024/01/08 02:07:05;;;;;;;3.37;3.17;;;-4.60;99.90;;;;;;5086708;28;20297;-79
2024/01/08 02:09:32;;;;;;;5.00;3.27;;;-4.60;99.90;;;;;;5086156;28;20326;-78
2024/01/08 02:11:59;;;;;;;4.40;3.40;;;-4.50;99.90;;;;;;5068969;28;20241;-78
2024/01/08 02:14:27;;;;;;;3.37;3.00;;;-4.50;99.90;;;;;;5066694;28;20290;-77
2024/01/08 02:16:53;;;;;;;4.30;3.70;;;-4.50;99.90;;;;;;5066395;28;20211;-79
2024/01/08 02:19:20;;;;;;;3.87;3.20;;;-4.50;99.90;;;;;;5066575;28;20975;-79
2024/01/08 02:21:49;;;;;;;4.30;3.47;;;-4.50;99.90;;;;;;5066057;28;20210;-79
2024/01/08 02:24:17;;;;;;;4.10;3.60;;;-4.50;99.90;;;;;;5082652;28;20218;-80
2024/01/08 02:26:44;;;;;;;5.60;3.67;;;-4.50;99.90;;;;;;5086958;28;20215;-79
2024/01/08 02:29:11;;;;;;;5.73;3.63;;;-4.50;99.90;;;;;;5086680;28;20253;-79
2024/01/08 02:31:40;;;;;;;4.77;3.60;;;-4.60;99.90;;;;;;5086100;28;20238;-80
2024/01/08 02:34:06;;;;;;;5.80;3.50;;;-4.60;99.90;;;;;;5088731;28;20215;-78
2024/01/08 02:36:33;;;;;;;5.30;3.63;;;-4.70;99.90;;;;;;5090636;28;20326;-80
2024/01/08 02:39:00;;;;;;;4.57;3.87;;;-4.60;99.90;;;;;;5089749;28;20199;-79
2024/01/08 02:41:29;;;;;;;5.17;3.73;;;-4.60;99.90;;;;;;5090555;28;20227;-79
2024/01/08 02:43:55;;;;;;;4.73;3.73;;;-4.60;99.90;;;;;;5090355;28;20286;-78
2024/01/08 02:46:22;;;;;;;3.70;3.40;;;-4.50;99.90;;;;;;5090254;28;20683;-79
2024/01/08 02:48:49;;;;;;;4.83;3.33;;;-4.50;99.90;;;;;;5090574;28;20261;-78
2024/01/08 02:51:16;;;;;;;4.53;3.23;;;-4.50;99.90;;;;;;5089966;28;20315;-79
2024/01/08 02:53:43;;;;;;;3.50;3.07;;;-4.50;99.90;;;;;;5089859;28;20238;-79
2024/01/08 02:56:19;;;;;;;3.80;3.20;;;-4.40;99.90;;;;;;5090049;28;20661;-78
2024/01/08 02:58:47;;;;;;;4.57;3.90;;;-4.40;99.90;;;;;;5090566;28;20286;-78
2024/01/08 03:01:14;;;;;;;4.60;3.57;;;-4.50;99.90;;;;;;5090012;28;20448;-78
2024/01/08 03:03:41;;;;;;;4.87;3.40;;;-4.50;99.90;;;;;;5090007;28;20298;-79
2024/01/08 03:06:08;;;;;;;3.97;3.57;;;-4.50;99.90;;;;;;5090039;28;20306;-78
2024/01/08 03:08:35;;;;;;;3.50;3.20;;;-4.50;99.90;;;;;;5089397;28;20290;-78
2024/01/08 03:11:02;;;;;;;4.87;3.80;;;-4.60;99.90;;;;;;5089830;28;20231;-78
2024/01/08 03:13:29;;;;;;;6.27;3.80;;;-4.50;99.90;;;;;;5089818;28;20295;-79
2024/01/08 03:15:57;;;;;;;3.77;3.37;;;-4.50;99.90;;;;;;5089907;28;20257;-78
2024/01/08 03:18:24;;;;;;;7.17;3.50;;;-4.60;99.90;;;;;;5090243;28;20317;-74
2024/01/08 03:20:50;;;;;;;4.07;3.30;;;-4.60;99.90;;;;;;5089842;28;20388;-75
2024/01/08 03:23:17;;;;;;;3.80;3.40;;;-4.70;99.90;;;;;;5089249;28;20297;-77
2024/01/08 03:25:44;;;;;;;4.10;3.60;;;-4.70;99.90;;;;;;5089506;28;20297;-75
2024/01/08 03:28:11;;;;;;;4.00;3.23;;;-4.70;99.90;;;;;;5081832;28;20302;-77
2024/01/08 03:30:38;;;;;;;4.00;3.30;;;-4.60;99.90;;;;;;5075428;28;20294;-75
2024/01/08 03:33:06;;;;;;;4.30;3.27;;;-4.60;99.90;;;;;;5085135;28;20230;-75
2024/01/08 03:35:33;;;;;;;3.47;2.83;;;-4.60;99.90;;;;;;5084682;28;20302;-75
2024/01/08 03:38:00;;;;;;;4.03;3.67;;;-4.60;99.90;;;;;;5084767;28;20209;-76
2024/01/08 03:40:27;;;;;;;4.37;3.27;;;-4.70;99.90;;;;;;5085153;28;20211;-75
2024/01/08 03:42:56;;;;;;;3.83;3.33;;;-4.70;99.90;;;;;;5084595;28;20688;-77
2024/01/08 03:45:23;;;;;;;4.63;3.43;;;-4.70;99.90;;;;;;5081724;28;20914;-76
2024/01/08 03:47:50;;;;;;;3.50;3.20;;;-4.70;99.90;;;;;;5082724;28;20226;-77
2024/01/08 03:50:18;;;;;;;3.83;3.20;;;-4.70;99.90;;;;;;5084354;28;20634;-75
2024/01/08 03:52:45;;;;;;;3.73;3.37;;;-4.60;99.90;;;;;;5083718;28;20241;-76
2024/01/08 03:55:12;;;;;;;3.50;3.20;;;-4.60;99.90;;;;;;5084843;28;20765;-74
2024/01/08 03:57:38;;;;;;;4.17;3.67;;;-4.70;99.90;;;;;;5087344;28;20769;-74
2024/01/08 04:00:07;;;;;;;4.93;3.60;;;-4.70;99.90;;;;;;5088304;28;20569;-74
2024/01/08 04:02:34;;;;;;;4.70;3.17;;;-4.70;99.90;;;;;;5087763;28;20306;-74
2024/01/08 04:05:02;;;;;;;4.07;3.37;;;-4.80;99.90;;;;;;5088010;28;20297;-74
2024/01/08 04:07:30;;;;;;;3.63;3.30;;;-4.90;99.90;;;;;;5087428;28;20204;-75
2024/01/08 04:09:57;;;;;;;4.03;3.63;;;-4.90;99.90;;;;;;5087113;28;20235;-74
2024/01/08 04:12:23;;;;;;;3.93;3.40;;;-4.90;99.90;;;;;;5087540;28;20238;-74
2024/01/08 04:14:50;;;;;;;4.77;3.70;;;-4.80;99.90;;;;;;5088023;28;20202;-73
2024/01/08 04:17:17;;;;;;;3.90;3.50;;;-4.80;99.90;;;;;;5080607;28;20296;-74
2024/01/08 04:19:44;;;;;;;3.87;3.10;;;-4.80;99.90;;;;;;5088633;28;20747;-73
2024/01/08 04:22:11;;;;;;;4.27;3.53;;;-4.80;99.90;;;;;;5088620;28;20261;-75
2024/01/08 04:24:39;;;;;;;3.83;3.53;;;-4.80;99.90;;;;;;5078254;28;20293;-75
2024/01/08 04:27:06;;;;;;;3.47;3.10;;;-4.80;99.90;;;;;;5068604;28;20303;-74
2024/01/08 04:29:33;;;;;;;4.03;3.53;;;-4.80;99.90;;;;;;5069352;28;20215;-75
2024/01/08 04:32:01;;;;;;;4.23;3.30;;;-4.80;99.90;;;;;;5088247;28;20223;-74
2024/01/08 04:34:28;;;;;;;3.83;3.43;;;-4.80;99.90;;;;;;5088275;28;20231;-74
2024/01/08 04:36:55;;;;;;;5.27;4.13;;;-4.80;99.90;;;;;;5088564;28;20235;-74
2024/01/08 04:39:21;;;;;;;3.73;3.23;;;-4.80;99.90;;;;;;5088287;28;20247;-75
2024/01/08 04:41:50;;;;;;;3.93;3.57;;;-4.80;99.90;;;;;;5088391;28;20217;-74
2024/01/08 04:44:17;;;;;;;3.80;3.40;;;-4.80;99.90;;;;;;5088335;28;20306;-75
2024/01/08 04:46:44;;;;;;;3.57;3.27;;;-4.90;99.90;;;;;;5088084;28;20627;-74
2024/01/08 04:49:11;;;;;;;4.30;3.60;;;-4.80;99.90;;;;;;5088016;28;20947;-76
2024/01/08 04:51:37;;;;;;;4.03;3.53;;;-4.80;99.90;;;;;;5087916;28;21145;-75
2024/01/08 04:54:06;;;;;;;3.60;3.23;;;-4.80;99.90;;;;;;5087593;28;20227;-74
2024/01/08 04:56:33;;;;;;;4.93;3.23;;;-4.80;99.90;;;;;;5087357;28;20792;-75
2024/01/08 04:59:01;;;;;;;3.77;3.30;;;-4.80;99.90;;;;;;5087897;28;20298;-75
2024/01/08 05:01:28;;;;;;;3.80;3.40;;;-4.80;99.90;;;;;;5087648;28;20302;-75
2024/01/08 05:03:55;;;;;;;3.50;3.20;;;-4.70;99.90;;;;;;5088056;28;20210;-74
2024/01/08 05:06:21;;;;;;;4.63;3.20;;;-4.70;99.90;;;;;;5087965;28;20208;-75
2024/01/08 05:08:48;;;;;;;4.00;3.60;;;-4.80;99.90;;;;;;5087227;28;20315;-74
2024/01/08 05:11:16;;;;;;;5.30;3.67;;;-4.80;99.90;;;;;;5086406;28;20238;-74
2024/01/08 05:13:42;;;;;;;4.03;3.53;;;-4.90;99.90;;;;;;5081510;28;20211;-75
2024/01/08 05:16:11;;;;;;;4.03;3.40;;;-4.80;99.90;;;;;;5087934;28;20294;-76
2024/01/08 05:18:38;;;;;;;3.70;3.40;;;-4.80;99.90;;;;;;5087656;28;20214;-74
2024/01/08 05:21:06;;;;;;;3.77;3.30;;;-4.90;99.90;;;;;;5087736;28;20306;-74
2024/01/08 05:23:34;;;;;;;4.40;4.00;;;-5.00;99.90;;;;;;5087529;28;20540;-74
2024/01/08 05:26:01;;;;;;;4.10;3.70;;;-5.00;99.90;;;;;;5087596;28;20208;-74
2024/01/08 05:28:29;;;;;;;4.03;3.20;;;-5.00;99.90;;;;;;5087912;28;20290;-75
2024/01/08 05:30:55;;;;;;;4.03;3.60;;;-5.00;99.90;;;;;;5087444;28;20294;-75
2024/01/08 05:33:24;;;;;;;3.70;3.37;;;-4.90;99.90;;;;;;5087593;28;20238;-74
2024/01/08 05:35:51;;;;;;;5.57;3.70;;;-4.90;99.90;;;;;;5087580;28;20204;-75
2024/01/08 05:38:18;;;;;;;3.93;3.50;;;-4.90;99.90;;;;;;5087409;28;20303;-75
2024/01/08 05:40:45;;;;;;;5.17;3.43;;;-5.00;99.90;;;;;;5087322;28;20255;-74
2024/01/08 05:43:12;;;;;;;3.93;3.40;;;-4.90;99.90;;;;;;5087551;28;20210;-75
2024/01/08 05:45:39;;;;;;;4.80;3.83;;;-4.90;99.90;;;;;;5087674;28;20207;-75
2024/01/08 05:48:07;;;;;;;4.30;3.83;;;-5.00;99.90;;;;;;5087592;28;20289;-75
2024/01/08 05:50:35;;;;;;;4.77;3.90;;;-5.00;99.90;;;;;;5087344;28;20237;-75
2024/01/08 05:53:02;;;;;;;4.33;3.70;;;-4.90;99.90;;;;;;5086945;28;20321;-74
2024/01/08 05:55:29;;;;;;;4.47;3.93;;;-4.90;99.90;;;;;;5087326;28;20621;-76
2024/01/08 05:57:56;;;;;;;4.80;3.43;;;-4.90;99.90;;;;;;5083609;28;20744;-75
2024/01/08 06:00:23;;;;;;;4.30;3.80;;;-4.90;99.90;;;;;;5086256;28;20301;-76
2024/01/08 06:02:49;;;;;;;3.63;3.17;;;-4.90;99.90;;;;;;5087252;28;20242;-74
2024/01/08 06:05:18;;;;;;;6.07;3.60;;;-4.90;99.90;;;;;;5087269;28;20301;-76
2024/01/08 06:07:48;;;;;;;4.37;3.70;;;-4.90;99.90;;;;;;5087062;28;20208;-74
2024/01/08 06:10:15;;;;;;;3.93;3.43;;;-4.90;99.90;;;;;;5090818;28;20238;-75
2024/01/08 06:12:42;;;;;;;5.17;3.80;;;-4.90;99.90;;;;;;5091508;28;20322;-76
2024/01/08 06:15:09;;;;;;;6.00;3.80;;;-4.90;99.90;;;;;;5091242;28;20325;-75
2024/01/08 06:17:36;;;;;;;3.90;3.50;;;-4.90;99.90;;;;;;5090591;28;20700;-75
2024/01/08 06:20:03;;;;;;;6.00;3.50;;;-5.00;99.90;;;;;;5091208;28;20271;-75
2024/01/08 06:22:30;;;;;;;5.13;3.47;;;-5.00;99.90;;;;;;5090365;28;20326;-75
2024/01/08 06:24:58;;;;;;;4.97;4.00;;;-5.00;99.90;;;;;;5091035;28;20201;-75
2024/01/08 06:27:25;;;;;;;5.57;4.33;;;-5.00;99.90;;;;;;5091119;28;20207;-75
2024/01/08 06:29:54;;;;;;;5.13;4.30;;;-5.00;99.90;;;;;;5090593;28;20282;-75
2024/01/08 06:32:21;;;;;;;5.00;4.17;;;-5.10;99.90;;;;;;5090747;28;20313;-75
2024/01/08 06:34:47;;;;;;;4.30;3.90;;;-5.20;99.90;;;;;;5090942;28;20287;-74
2024/01/08 06:37:14;;;;;;;4.23;3.67;;;-5.20;99.90;;;;;;5090696;28;20302;-74
2024/01/08 06:39:41;;;;;;;6.83;3.87;;;-5.20;99.90;;;;;;5090569;28;20302;-76
2024/01/08 06:42:09;;;;;;;7.73;4.10;;;-5.10;99.90;;;;;;5090474;28;20253;-75
2024/01/08 06:44:36;;;;;;;6.47;4.07;;;-5.20;99.90;;;;;;5090681;28;20526;-76
2024/01/08 06:47:03;;;;;;;4.20;3.60;;;-5.10;99.90;;;;;;5090016;28;20203;-76
2024/01/08 06:49:30;;;;;;;3.90;3.40;;;-5.10;99.90;;;;;;5090452;28;20202;-75
2024/01/08 06:51:59;;;;;;;4.57;3.70;;;-5.00;99.90;;;;;;5090378;28;20242;-75
2024/01/08 06:54:26;;;;;;;4.67;3.90;;;-5.00;99.90;;;;;;5072530;28;20251;-76
2024/01/08 06:56:52;;;;;;;5.40;3.80;;;-4.90;99.90;;;;;;5070147;28;20658;-75
2024/01/08 06:59:21;;;;;;;3.87;3.57;;;-4.80;99.90;;;;;;5070403;28;20266;-76
2024/01/08 07:01:51;;;;;;;4.40;3.90;;;-4.80;99.90;;;;;;5069861;28;20258;-75
2024/01/08 07:04:21;;;;;;;6.77;4.27;;;-4.80;99.90;;;;;;5075666;28;20665;-75
2024/01/08 07:06:48;;;;;;;4.53;3.67;;;-4.90;99.90;;;;;;5089658;28;20202;-74
2024/01/08 07:09:15;;;;;;;5.10;3.60;;;-4.90;99.90;;;;;;5089844;28;20338;-75
2024/01/08 07:11:42;;;;;;;8.57;4.60;;;-4.90;99.90;;;;;;5089740;28;20297;-76
2024/01/08 07:14:12;;;;;;;4.87;4.07;;;-4.90;99.90;;;;;;5090229;28;20211;-77
2024/01/08 07:16:40;;;;;;;4.23;3.70;;;-4.90;99.90;;;;;;5089517;28;20206;-75
2024/01/08 07:19:07;;;;;;;6.67;4.30;;;-4.90;99.90;;;;;;5089790;28;21050;-75
2024/01/08 07:21:34;;;;;;;4.73;4.20;;;-5.10;99.90;;;;;;5089614;28;20242;-74
2024/01/08 07:24:01;;;;;;;6.07;4.57;;;-5.00;99.90;;;;;;5074997;28;20586;-76
2024/01/08 07:26:28;;;;;;;5.40;4.17;;;-5.10;99.90;;;;;;5069602;28;20221;-75
2024/01/08 07:28:55;;;;;;;5.37;4.37;;;-5.20;99.90;;;;;;5069620;28;20301;-76
2024/01/08 07:31:22;;;;;;;5.20;4.70;;;-5.30;99.90;;;;;;5085838;28;20205;-76
2024/01/08 07:33:51;;;;;;;7.73;4.90;;;-5.30;99.90;;;;;;5089733;28;20325;-75
2024/01/08 07:36:17;;;;;;;5.40;4.17;;;-5.30;99.90;;;;;;5089347;28;20211;-76
2024/01/08 07:38:44;;;;;;;4.57;3.90;;;-5.30;99.90;;;;;;5089436;28;20616;-75
2024/01/08 07:41:13;;;;;;;6.03;4.60;;;-5.30;99.90;;;;;;5089057;28;20203;-76
2024/01/08 07:43:40;;;;;;;5.60;4.40;;;-5.30;99.90;;;;;;5089660;28;20233;-76
2024/01/08 07:46:07;;;;;;;5.67;4.03;;;-5.20;99.90;;;;;;5089492;28;20206;-77
2024/01/08 07:48:34;;;;;;;4.40;3.93;;;-5.20;99.90;;;;;;5069204;28;20207;-75
2024/01/08 07:51:03;;;;;;;4.57;4.07;;;-5.30;99.90;;;;;;5069064;28;20945;-76
2024/01/08 07:53:30;;;;;;;4.63;4.20;;;-5.30;99.90;;;;;;5078129;28;20325;-76
2024/01/08 07:55:57;;;;;;;5.60;3.97;;;-5.30;99.90;;;;;;5089545;28;20207;-75
2024/01/08 07:58:24;;;;;;;9.00;4.33;;;-5.30;99.90;;;;;;5088825;28;20762;-75
2024/01/08 08:00:51;;;;;;;4.40;4.00;;;-5.30;99.90;;;;;;5088841;28;20666;-76
2024/01/08 08:03:18;;;;;;;6.03;4.57;;;-5.20;99.90;;;;;;5088598;28;20685;-76
2024/01/08 08:05:46;;;;;;;5.70;4.00;;;-5.00;99.90;;;;;;5088969;28;20214;-75
2024/01/08 08:08:15;;;;;;;6.40;4.80;;;-5.20;99.90;;;;;;5088688;28;20291;-76
2024/01/08 08:10:41;;;;;;;4.30;3.90;;;-5.10;99.90;;;;;;5089020;28;20203;-76
2024/01/08 08:13:08;;;;;;;5.70;4.53;;;-5.00;99.90;;;;;;5088822;28;20321;-76
2024/01/08 08:15:35;;;;;;;5.53;4.30;;;-5.10;99.90;;;;;;5088949;28;20291;-75
2024/01/08 08:18:02;;;;;;;6.17;4.40;;;-5.00;99.90;;;;;;5088712;28;20293;-76
2024/01/08 08:20:29;;;;;;;5.47;4.20;;;-5.00;99.90;;;;;;5088870;28;20245;-76
2024/01/08 08:22:56;;;;;;;4.47;4.00;;;-5.00;99.90;;;;;;5088636;28;20290;-75
2024/01/08 08:25:24;;;;;;;7.53;4.47;;;-4.90;99.90;;;;;;5089089;28;20297;-76
2024/01/08 08:27:51;;;;;;;4.87;4.37;;;-4.80;99.90;;;;;;5088576;28;20293;-75
2024/01/08 08:30:19;;;;;;;5.10;4.57;;;-4.80;99.90;;;;;;5088458;28;20198;-75
2024/01/08 08:32:46;;;;;;;5.73;4.80;;;-4.80;99.90;;;;;;5088100;28;20272;-75
2024/01/08 08:35:13;;;;;;;7.50;4.80;;;-4.70;99.90;;;;;;5088693;28;20242;-76
2024/01/08 08:37:40;;;;;;;5.17;4.23;;;-4.70;99.90;;;;;;5088571;28;20207;-74
2024/01/08 08:40:09;;;;;;;4.80;4.13;;;-4.50;99.90;;;;;;5088467;28;20305;-74
2024/01/08 08:42:37;;;;;;;4.30;3.90;;;-4.40;99.90;;;;;;5088267;28;20279;-74
2024/01/08 08:45:05;;;;;;;5.40;4.50;;;-4.40;99.90;;;;;;5088406;28;20651;-74
2024/01/08 08:47:33;;;;;;;4.40;4.00;;;-4.30;99.90;;;;;;5088652;28;20234;-74
2024/01/08 08:50:00;;;;;;;6.10;4.20;;;-4.30;99.90;;;;;;5088694;28;20206;-74
2024/01/08 08:52:27;;;;;;;5.53;4.03;;;-4.20;99.90;;;;;;5086768;28;20258;-74
2024/01/08 08:54:54;;;;;;;4.50;4.10;;;-4.10;99.90;;;;;;5068091;28;20240;-74
2024/01/08 08:57:21;;;;;;;4.83;4.30;;;-4.00;99.90;;;;;;5070210;28;20280;-74
2024/01/08 08:59:49;;;;;;;6.83;4.57;;;-3.90;99.90;;;;;;5088288;28;20244;-74
2024/01/08 09:02:16;;;;;;;5.17;4.60;;;-3.80;99.90;;;;;;5087933;28;20761;-74
2024/01/08 09:04:43;;;;;;;5.17;4.00;;;-3.80;99.90;;;;;;5088238;28;20293;-74
2024/01/08 09:07:10;;;;;;;5.57;4.00;;;-3.70;99.90;;;;;;5088191;28;20650;-75
2024/01/08 09:09:37;;;;;;;5.43;4.40;;;-3.60;99.90;;;;;;5087472;28;20305;-75
2024/01/08 09:12:04;;;;;;;4.87;4.03;;;-3.60;99.90;;;;;;5088068;28;20313;-75
2024/01/08 09:14:31;;;;;;;5.77;3.97;;;-3.60;99.90;;;;;;5087115;28;20413;-75
2024/01/08 09:16:59;;;;;;;5.87;4.33;;;-3.50;99.90;;;;;;5087814;28;20867;-74
2024/01/08 09:19:26;;;;;;;5.47;4.13;;;-3.60;99.90;;;;;;5087505;28;20248;-74
2024/01/08 09:21:54;;;;;;;4.33;3.77;;;-3.60;99.90;;;;;;5088130;28;20213;-74
2024/01/08 09:24:21;;;;;;;5.10;4.40;;;-3.50;99.90;;;;;;5087352;28;20206;-74
2024/01/08 09:26:48;;;;;;;4.80;3.90;;;-3.40;99.90;;;;;;5087880;28;20214;-74
2024/01/08 09:29:15;;;;;;;5.93;4.43;;;-3.30;99.90;;;;;;5087933;28;20265;-75
2024/01/08 09:31:42;;;;;;;6.23;4.00;;;-3.30;99.90;;;;;;5087695;28;20239;-75
2024/01/08 09:34:10;;;;;;;4.87;4.33;;;-3.10;99.90;;;;;;5087653;28;20775;-75
2024/01/08 09:36:37;;;;;;;4.63;4.23;;;-3.00;99.90;;;;;;5087938;28;20213;-75
2024/01/08 09:39:04;;;;;;;16.17;5.83;;;-2.90;99.90;;;;;;5087360;28;20854;-74
2024/01/08 09:41:31;;;;;;;7.63;4.50;;;-2.90;99.90;;;;;;5087464;28;20251;-75
2024/01/08 09:44:03;;;;;;;5.50;4.93;;;-2.90;99.90;;;;;;5086911;28;20206;-75
2024/01/08 09:46:33;;;;;;;5.43;4.50;;;-2.80;99.90;;;;;;5087630;28;20908;-75
2024/01/08 09:49:03;;;;;;;4.93;4.43;;;-2.80;99.90;;;;;;5087705;28;20234;-75
2024/01/08 09:51:31;;;;;;;9.63;4.40;;;-2.70;99.90;;;;;;5087330;28;20206;-75
2024/01/08 09:54:00;;;;;;;4.47;3.90;;;-2.70;99.90;;;;;;5086642;28;20724;-74
2024/01/08 09:56:28;;;;;;;4.93;4.20;;;-2.60;99.90;;;;;;5087467;28;20206;-75
2024/01/08 09:58:55;;;;;;;6.73;4.63;;;-2.50;99.90;;;;;;5087460;28;20238;-75
2024/01/08 10:01:23;;;;;;;4.27;3.73;;;-2.50;99.90;;;;;;5087194;28;20246;-76
2024/01/08 10:03:50;;;;;;;6.73;4.23;;;-2.50;99.90;;;;;;5087030;28;20255;-75
2024/01/08 10:06:17;;;;;;;5.80;4.10;;;-2.40;99.90;;;;;;5086427;28;20296;-75
2024/01/08 10:08:46;;;;;;;4.70;4.20;;;-2.30;99.90;;;;;;5086527;28;20245;-75
2024/01/08 10:11:14;;;;;;;4.97;4.23;;;-2.20;99.90;;;;;;5086953;28;20297;-75
2024/01/08 10:13:41;;;;;;;5.57;4.20;;;-2.20;99.90;;;;;;5086732;28;20235;-76
2024/01/08 10:16:09;;;;;;;4.50;4.10;;;-2.30;99.90;;;;;;5087305;28;20297;-75
2024/01/08 10:18:35;;;;;;;5.43;4.13;;;-2.20;99.90;;;;;;5087312;28;20302;-75
2024/01/08 10:21:10;;;;;;;5.33;3.93;;;-2.20;99.90;;;;;;5087269;28;20305;-75
2024/01/08 10:23:37;;;;;;;4.33;3.93;;;-2.10;99.90;;;;;;5087078;28;20227;-75
2024/01/08 10:26:06;;;;;;;4.20;3.90;;;-2.00;99.90;;;;;;5087771;28;20235;-76
2024/01/08 10:28:37;;;;;;;4.13;3.73;;;-1.80;99.90;;;;;;5087292;28;20218;-75
2024/01/08 10:31:05;;;;;;;4.13;3.73;;;-1.70;99.90;;;;;;5087735;28;20199;-75
2024/01/08 10:33:32;;;;;;;4.20;3.80;;;-1.50;99.90;;;;;;5087165;28;20269;-75
2024/01/08 10:36:01;;;;;;;5.23;3.90;;;-1.50;99.90;;;;;;5087350;28;20407;-75
2024/01/08 10:38:32;;;;;;;4.30;3.90;;;-1.40;99.90;;;;;;5087152;28;20207;-75
2024/01/08 10:41:00;;;;;;;4.03;3.63;;;-1.20;99.90;;;;;;5087342;28;20198;-76
2024/01/08 10:43:28;;;;;;;4.07;3.67;;;-1.20;99.90;;;;;;5087093;28;20213;-76
2024/01/08 10:45:58;;;;;;;4.10;3.70;;;-1.20;99.90;;;;;;5086885;28;20209;-75
2024/01/08 10:48:35;;;;;;;6.13;4.43;;;-1.20;99.90;;;;;;5087042;28;20286;-75
2024/01/08 10:51:06;;;;;;;7.83;3.90;;;-1.20;99.90;;;;;;5086851;28;20238;-75
2024/01/08 10:53:41;;;;;;;7.20;4.00;;;-1.00;99.90;;;;;;5076394;28;20833;-76
2024/01/08 10:56:12;;;;;;;5.80;3.30;;;-0.90;99.90;;;;;;5070472;28;20199;-76
2024/01/08 10:58:51;;;;;;;4.73;4.03;;;-0.80;99.90;;;;;;5082994;28;20698;-76
2024/01/08 11:01:18;;;;;;;4.23;3.83;;;-0.70;99.90;;;;;;5090533;28;20662;-75
2024/01/08 11:03:47;;;;;;;4.27;3.40;;;-0.60;99.90;;;;;;5090814;28;20347;-76
2024/01/08 11:06:14;;;;;;;4.07;3.60;;;-0.40;99.90;;;;;;5090413;28;20226;-75
2024/01/08 11:08:43;;;;;;;3.97;3.40;;;-0.40;99.90;;;;;;5090368;28;20253;-76
2024/01/08 11:11:11;;;;;;;4.37;3.90;;;-0.30;99.90;;;;;;5091085;28;20211;-76
2024/01/08 11:13:41;;;;;;;3.77;3.40;;;-0.30;99.90;;;;;;5090119;28;20237;-75
2024/01/08 11:16:09;;;;;;;4.83;3.67;;;-0.30;99.90;;;;;;5090200;28;20203;-76
2024/01/08 11:18:38;;;;;;;4.20;3.80;;;-0.20;99.90;;;;;;5090396;28;20317;-75
2024/01/08 11:21:05;;;;;;;5.57;3.90;;;-0.10;99.90;;;;;;5090531;28;20226;-76
2024/01/08 11:23:40;;;;;;;4.17;3.77;;;-0.10;99.90;;;;;;5089960;28;20297;-75
2024/01/08 11:26:10;;;;;;;3.67;3.37;;;0.00;99.90;;;;;;5090131;28;20646;-76
2024/01/08 11:28:39;;;;;;;3.20;3.00;;;0.10;99.90;;;;;;5090262;28;20275;-76
2024/01/08 11:31:42;;;;;;;4.27;2.97;;;0.10;99.90;;;;;;5089731;28;20231;-76
2024/01/08 11:34:39;;;;;;;4.00;3.53;;;0.00;99.90;;;;;;5068022;28;20317;-77
2024/01/08 11:37:29;;;;;;;4.10;3.70;;;0.00;99.90;;;;;;5067575;28;20211;-76
2024/01/08 11:39:56;;;;;;;3.70;3.40;;;0.10;99.90;;;;;;5069709;28;20634;-76
2024/01/08 11:42:23;;;;;;;3.90;3.20;;;0.30;99.90;;;;;;5069694;28;20294;-76
2024/01/08 11:44:50;;;;;;;6.57;3.70;;;0.20;99.90;;;;;;5069634;28;20214;-76
2024/01/08 11:47:17;;;;;;;6.17;3.47;;;0.30;99.90;;;;;;5081498;28;20681;-76
2024/01/08 11:49:44;;;;;;;4.07;3.73;;;0.30;99.90;;;;;;5089877;28;20287;-75
2024/01/08 11:52:13;;;;;;;3.13;2.93;;;0.40;99.90;;;;;;5089869;28;20315;-76
2024/01/08 11:54:40;;;;;;;3.60;3.30;;;0.50;99.90;;;;;;5089819;28;20242;-75
2024/01/08 11:57:09;;;;;;;4.13;3.20;;;0.60;99.60;;;;;;5090050;28;20199;-76
2024/01/08 11:59:36;;;;;;;5.07;3.40;;;0.50;99.30;;;;;;5090156;28;20207;-76
2024/01/08 12:02:13;;;;;;;5.03;3.50;;;0.50;99.20;;;;;;5089524;28;20635;-76
2024/01/08 12:04:41;;;;;;;3.43;2.80;;;0.50;99.00;;;;;;5089961;28;20198;-75
2024/01/08 12:07:13;;;;;;;4.07;3.13;;;0.50;98.50;;;;;;5088363;28;20743;-75
2024/01/08 12:09:40;;;;;;;3.50;3.17;;;0.40;98.30;;;;;;5089206;28;20261;-75
2024/01/08 12:12:08;;;;;;;3.03;2.70;;;0.40;98.20;;;;;;5089735;28;20376;-76
2024/01/08 12:14:36;;;;;;;3.30;2.63;;;0.30;98.00;;;;;;5089477;28;20317;-76
2024/01/08 12:17:04;;;;;;;3.33;3.03;;;0.30;97.80;;;;;;5089399;28;20230;-75
2024/01/08 12:19:37;;;;;;;2.80;2.60;;;0.20;97.60;;;;;;5088912;28;20760;-75
2024/01/08 12:22:06;;;;;;;3.00;2.73;;;0.20;97.40;;;;;;5089050;28;20290;-76
2024/01/08 12:24:35;;;;;;;4.60;2.70;;;0.10;97.10;;;;;;5088746;28;20764;-75
2024/01/08 12:27:03;;;;;;;3.40;2.60;;;0.10;97.20;;;;;;5089025;28;20207;-75
2024/01/08 12:29:30;;;;;;;3.33;2.67;;;0.10;97.20;;;;;;5088860;28;20212;-75
2024/01/08 12:31:58;;;;;;;3.73;2.40;;;0.00;97.10;;;;;;5088564;28;20257;-75
2024/01/08 12:34:28;;;;;;;5.50;3.10;;;0.00;97.20;;;;;;5089578;28;20625;-75
2024/01/08 12:36:55;;;;;;;3.33;2.40;;;0.10;97.10;;;;;;5089168;28;20199;-74
2024/01/08 12:39:24;;;;;;;2.40;2.20;;;0.20;97.20;;;;;;5088554;28;20295;-75
2024/01/08 12:41:55;;;;;;;2.60;2.40;;;0.30;97.10;;;;;;5089042;28;20195;-75
2024/01/08 12:44:24;;;;;;;2.70;2.50;;;0.40;97.50;;;;;;5088361;28;20207;-75
2024/01/08 12:46:51;;;;;;;2.87;2.60;;;0.50;97.20;;;;;;5088643;28;20919;-75
2024/01/08 12:49:18;;;;;;;4.33;3.13;;;0.60;97.30;;;;;;5088790;28;20289;-75
2024/01/08 12:51:45;;;;;;;3.20;2.90;;;0.70;97.30;;;;;;5088588;28;20310;-75